createdAt,value
2024-01-24T00:01:57.861Z,11.73
2024-01-24T00:04:25.837Z,12.87
2024-01-24T00:06:52.512Z,19.90
2024-01-24T00:09:19.151Z,11.37
2024-01-24T00:11:45.835Z,13.93
2024-01-24T00:14:12.506Z,11.73
2024-01-24T00:16:40.196Z,13.10
2024-01-24T00:19:06.940Z,20.83
2024-01-24T00:21:33.650Z,11.10
2024-01-24T00:24:00.353Z,14.87
2024-01-24T00:26:26.972Z,15.47
2024-01-24T00:28:53.630Z,13.97
2024-01-24T00:31:20.257Z,11.37
2024-01-24T00:33:47.047Z,10.10
2024-01-24T00:36:13.806Z,15.17
2024-01-24T00:38:40.424Z,12.63
2024-01-24T00:41:07.469Z,8.47
2024-01-24T00:43:34.204Z,10.37
2024-01-24T00:46:01.122Z,11.37
2024-01-24T00:48:27.889Z,14.10
2024-01-24T00:50:54.690Z,15.73
2024-01-24T00:53:22.206Z,12.33
2024-01-24T00:55:49.092Z,12.90
2024-01-24T00:58:15.694Z,10.70
2024-01-24T01:00:42.479Z,9.83
2024-01-24T01:03:09.656Z,6.40
2024-01-24T01:05:37.508Z,12.53
2024-01-24T01:08:05.197Z,10.33
2024-01-24T01:10:31.995Z,13.23
2024-01-24T01:12:58.767Z,8.97
2024-01-24T01:15:25.630Z,9.23
2024-01-24T01:17:52.733Z,9.97
2024-01-24T01:20:22.402Z,10.83
2024-01-24T01:22:49.276Z,9.23
2024-01-24T01:25:16.053Z,7.57
2024-01-24T01:27:42.745Z,7.97
2024-01-24T01:30:09.915Z,8.73
2024-01-24T01:32:36.750Z,12.77
2024-01-24T01:35:03.431Z,9.77
2024-01-24T01:37:30.069Z,9.87
2024-01-24T01:39:56.740Z,8.03
2024-01-24T01:42:23.654Z,9.53
2024-01-24T01:44:50.385Z,7.77
2024-01-24T01:47:18.049Z,5.47
2024-01-24T01:49:45.789Z,6.90
2024-01-24T01:52:13.539Z,6.03
2024-01-24T01:54:42.783Z,15.20
2024-01-24T01:57:11.662Z,9.93
2024-01-24T01:59:45.757Z,7.47
2024-01-24T02:02:12.510Z,8.13
2024-01-24T02:04:39.155Z,5.33
2024-01-24T02:07:06.081Z,4.53
2024-01-24T02:09:33.535Z,6.90
2024-01-24T02:12:00.151Z,8.07
2024-01-24T02:14:26.736Z,3.57
2024-01-24T02:16:53.351Z,6.60
2024-01-24T02:19:19.976Z,4.70
2024-01-24T02:21:46.671Z,4.50
2024-01-24T02:24:13.606Z,5.47
2024-01-24T02:26:40.587Z,5.70
2024-01-24T02:29:07.756Z,4.10
2024-01-24T02:31:34.342Z,4.70
2024-01-24T02:34:01.063Z,3.00
2024-01-24T02:36:28.074Z,5.30
2024-01-24T02:38:57.678Z,3.50
2024-01-24T02:41:25.611Z,4.10
2024-01-24T02:43:52.239Z,2.77
2024-01-24T02:46:18.894Z,4.10
2024-01-24T02:48:45.737Z,2.10
2024-01-24T02:51:12.476Z,3.10
2024-01-24T02:53:39.812Z,2.73
2024-01-24T02:56:06.486Z,3.40
2024-01-24T02:58:33.106Z,3.10
2024-01-24T03:00:59.795Z,2.43
2024-01-24T03:03:26.545Z,2.93
2024-01-24T03:05:53.236Z,4.90
2024-01-24T03:08:19.874Z,4.77
2024-01-24T03:10:46.531Z,3.37
2024-01-24T03:13:13.211Z,2.63
2024-01-24T03:15:39.896Z,2.53
2024-01-24T03:18:06.791Z,2.83
2024-01-24T03:20:33.421Z,2.93
2024-01-24T03:23:02.669Z,2.40
2024-01-24T03:25:30.595Z,2.67
2024-01-24T03:27:57.252Z,2.80
2024-01-24T03:30:24.352Z,3.70
2024-01-24T03:32:50.983Z,6.40
2024-01-24T03:35:17.880Z,4.80
2024-01-24T03:37:44.514Z,4.30
2024-01-24T03:40:11.494Z,4.60
2024-01-24T03:42:38.201Z,6.10
2024-01-24T03:45:05.185Z,3.17
2024-01-24T03:47:31.803Z,4.63
2024-01-24T03:49:58.433Z,2.90
2024-01-24T03:52:25.367Z,2.10
2024-01-24T03:54:52.089Z,2.03
2024-01-24T03:57:18.786Z,1.40
2024-01-24T03:59:45.506Z,1.43
2024-01-24T04:02:13.297Z,0.83
2024-01-24T04:04:40.147Z,1.90
2024-01-24T04:07:06.932Z,1.13
2024-01-24T04:09:33.859Z,1.43
2024-01-24T04:12:00.569Z,2.13
2024-01-24T04:14:27.150Z,1.17
2024-01-24T04:16:53.721Z,0.63
2024-01-24T04:19:20.438Z,0.90
2024-01-24T04:21:47.302Z,1.30
2024-01-24T04:24:14.032Z,1.57
2024-01-24T04:26:40.749Z,1.33
2024-01-24T04:29:10.639Z,1.87
2024-01-24T04:31:39.391Z,1.50
2024-01-24T04:34:06.416Z,1.43
2024-01-24T04:36:33.436Z,1.20
2024-01-24T04:39:00.505Z,1.70
2024-01-24T04:41:27.784Z,0.60
2024-01-24T04:43:54.393Z,1.00
2024-01-24T04:46:20.992Z,1.67
2024-01-24T04:48:47.699Z,2.30
2024-01-24T04:51:14.590Z,2.57
2024-01-24T04:53:41.432Z,1.93
2024-01-24T04:56:08.545Z,2.87
2024-01-24T04:58:35.325Z,3.13
2024-01-24T05:01:02.383Z,2.63
2024-01-24T05:03:29.039Z,1.57
2024-01-24T05:06:01.303Z,1.67
2024-01-24T05:08:34.060Z,2.13
2024-01-24T05:11:00.689Z,2.37
2024-01-24T05:13:27.295Z,1.80
2024-01-24T05:15:54.062Z,5.50
2024-01-24T05:18:21.175Z,1.87
2024-01-24T05:20:48.384Z,2.53
2024-01-24T05:23:15.934Z,2.97
2024-01-24T05:25:43.989Z,8.40
2024-01-24T05:28:15.060Z,6.10
2024-01-24T05:30:41.718Z,5.33
2024-01-24T05:33:08.408Z,5.77
2024-01-24T05:35:35.046Z,7.47
2024-01-24T05:38:01.637Z,6.50
2024-01-24T05:40:28.422Z,4.53
2024-01-24T05:42:55.219Z,8.10
2024-01-24T05:45:23.414Z,7.63
2024-01-24T05:47:50.277Z,6.27
2024-01-24T05:50:17.006Z,5.63
2024-01-24T05:52:44.547Z,9.60
2024-01-24T05:55:12.865Z,9.70
2024-01-24T05:57:40.787Z,10.27
2024-01-24T06:00:15.688Z,14.20
2024-01-24T06:02:44.378Z,6.13
2024-01-24T06:05:11.516Z,14.60
2024-01-24T06:10:06.529Z,14.97
2024-01-24T06:12:33.292Z,13.17
2024-01-24T06:14:59.956Z,13.80
2024-01-24T06:17:26.639Z,14.10
2024-01-24T06:19:53.348Z,14.87
2024-01-24T06:22:20.024Z,18.00
2024-01-24T06:24:47.800Z,19.17
2024-01-24T06:27:14.705Z,22.30
2024-01-24T06:30:16.488Z,9.37
2024-01-24T06:32:28.386Z,14.50
2024-01-24T06:34:55.146Z,13.33
2024-01-24T06:37:22.213Z,15.77
2024-01-24T06:39:49.210Z,13.57
2024-01-24T06:42:16.999Z,22.50
2024-01-24T06:44:45.122Z,20.27
2024-01-24T06:47:12.436Z,11.97
2024-01-24T06:49:39.143Z,22.00
2024-01-24T06:52:05.925Z,14.03
2024-01-24T06:54:36.400Z,15.80
2024-01-24T06:57:04.530Z,17.80
2024-01-24T06:59:32.784Z,13.83
2024-01-24T07:02:00.158Z,18.70
2024-01-24T07:04:27.172Z,19.97
2024-01-24T07:06:53.874Z,15.00
2024-01-24T07:09:20.575Z,12.60
2024-01-24T07:11:47.201Z,19.83
2024-01-24T07:14:16.011Z,15.50
2024-01-24T07:16:46.054Z,19.57
2024-01-24T07:19:13.005Z,23.43
2024-01-24T07:21:40.869Z,17.30
2024-01-24T07:24:08.514Z,25.60
2024-01-24T07:26:36.062Z,21.40
2024-01-24T07:29:02.770Z,19.13
2024-01-24T07:31:29.717Z,21.83
2024-01-24T07:33:56.441Z,15.93
2024-01-24T07:36:23.270Z,18.10
2024-01-24T07:38:49.903Z,19.70
2024-01-24T07:41:16.708Z,23.70
2024-01-24T07:43:44.456Z,24.03
2024-01-24T07:46:12.248Z,15.37
2024-01-24T07:48:39.260Z,25.43
2024-01-24T07:51:05.964Z,26.10
2024-01-24T07:53:32.672Z,18.73
2024-01-24T07:56:10.894Z,21.27
2024-01-24T07:58:43.916Z,24.70
2024-01-24T08:01:11.055Z,22.77
2024-01-24T08:03:39.106Z,22.27
2024-01-24T08:06:06.329Z,21.23
2024-01-24T08:08:33.240Z,20.50
2024-01-24T08:11:00.310Z,28.97
2024-01-24T08:13:27.054Z,17.93
2024-01-24T08:15:55.582Z,32.20
2024-01-24T08:18:22.471Z,22.73
2024-01-24T08:20:50.847Z,24.50
2024-01-24T08:23:17.454Z,30.00
2024-01-24T08:25:44.134Z,19.90
2024-01-24T08:28:11.212Z,21.23
2024-01-24T08:30:37.957Z,21.90
2024-01-24T08:33:05.247Z,29.90
2024-01-24T08:35:34.622Z,25.63
2024-01-24T08:38:01.212Z,33.03
2024-01-24T08:40:27.840Z,26.33
2024-01-24T08:42:55.646Z,32.37
2024-01-24T08:45:22.343Z,22.93
2024-01-24T08:47:49.096Z,25.67
2024-01-24T08:50:16.202Z,33.30
2024-01-24T08:52:42.902Z,25.77
2024-01-24T08:55:13.070Z,26.37
2024-01-24T08:57:40.159Z,27.80
2024-01-24T09:00:09.065Z,19.57
2024-01-24T09:02:36.214Z,29.13
2024-01-24T09:05:03.030Z,33.43
2024-01-24T09:07:29.884Z,25.83
2024-01-24T09:09:56.750Z,29.13
2024-01-24T09:12:23.414Z,19.47
2024-01-24T09:14:50.316Z,21.43
2024-01-24T09:17:18.679Z,33.90
2024-01-24T09:19:45.870Z,21.63
2024-01-24T09:22:12.665Z,35.53
2024-01-24T09:24:39.390Z,29.03
2024-01-24T09:27:06.133Z,26.07
2024-01-24T09:29:32.869Z,20.23
2024-01-24T09:31:59.685Z,24.90
2024-01-24T09:34:28.305Z,22.20
2024-01-24T09:36:55.995Z,33.60
2024-01-24T09:39:26.710Z,24.97
2024-01-24T09:41:53.623Z,22.80
2024-01-24T09:44:20.970Z,33.50
2024-01-24T09:46:50.899Z,27.87
2024-01-24T09:49:19.799Z,21.37
2024-01-24T09:51:49.367Z,22.80
2024-01-24T09:54:18.015Z,26.83
2024-01-24T09:56:45.868Z,19.83
2024-01-24T09:59:14.230Z,29.40
2024-01-24T10:01:41.569Z,28.60
2024-01-24T10:04:09.168Z,26.33
2024-01-24T10:06:39.788Z,14.57
2024-01-24T10:09:08.754Z,30.60
2024-01-24T10:11:36.054Z,26.97
2024-01-24T10:14:03.060Z,30.97
2024-01-24T10:16:30.009Z,28.27
2024-01-24T10:18:57.681Z,31.80
2024-01-24T10:21:26.748Z,30.67
2024-01-24T10:23:56.788Z,20.70
2024-01-24T10:26:24.103Z,38.33
2024-01-24T10:28:52.322Z,22.67
2024-01-24T10:31:22.029Z,26.00
2024-01-24T10:33:50.080Z,23.17
2024-01-24T10:36:26.211Z,20.40
2024-01-24T10:38:59.862Z,26.40
2024-01-24T10:41:32.100Z,33.40
2024-01-24T10:44:06.127Z,17.53
2024-01-24T10:46:34.407Z,31.27
2024-01-24T10:49:02.809Z,25.17
2024-01-24T10:51:31.224Z,31.47
2024-01-24T10:53:58.221Z,29.93
2024-01-24T10:56:28.428Z,24.73
2024-01-24T10:58:57.948Z,22.57
2024-01-24T11:01:25.606Z,20.57
2024-01-24T11:03:55.126Z,26.10
2024-01-24T11:06:25.426Z,27.13
2024-01-24T11:08:58.889Z,23.10
2024-01-24T11:11:28.420Z,21.47
2024-01-24T11:13:55.522Z,22.53
2024-01-24T11:16:30.285Z,18.27
2024-01-24T11:19:19.000Z,28.93
2024-01-24T11:21:45.693Z,23.67
2024-01-24T11:24:12.498Z,20.40
2024-01-24T11:26:39.051Z,19.20
2024-01-24T11:29:14.047Z,24.30
2024-01-24T11:31:43.273Z,22.10
2024-01-24T11:34:15.520Z,22.63
2024-01-24T11:36:51.617Z,21.30
2024-01-24T11:39:39.036Z,26.77
2024-01-24T11:42:35.367Z,24.50
2024-01-24T11:45:18.542Z,20.70
2024-01-24T11:47:45.927Z,27.30
2024-01-24T11:50:13.138Z,16.83
2024-01-24T11:52:40.916Z,17.63
2024-01-24T11:55:08.730Z,23.87
2024-01-24T11:57:35.556Z,18.80
2024-01-24T12:00:02.285Z,26.53
2024-01-24T12:02:29.583Z,21.57
2024-01-24T12:04:57.666Z,22.80
2024-01-24T12:07:24.679Z,27.00
2024-01-24T12:09:51.641Z,23.90
2024-01-24T12:12:19.108Z,20.30
2024-01-24T12:14:46.449Z,32.37
2024-01-24T12:17:13.661Z,19.47
2024-01-24T12:19:45.999Z,18.27
2024-01-24T12:22:13.771Z,26.80
2024-01-24T12:24:43.919Z,19.37
2024-01-24T12:27:11.614Z,17.90
2024-01-24T12:29:38.636Z,20.07
2024-01-24T12:32:07.761Z,21.90
2024-01-24T12:34:35.384Z,15.00
2024-01-24T12:37:02.179Z,21.73
2024-01-24T12:39:30.945Z,17.17
2024-01-24T12:41:57.649Z,19.50
2024-01-24T12:44:24.716Z,23.57
2024-01-24T12:46:56.951Z,18.20
2024-01-24T12:49:25.172Z,31.13
2024-01-24T12:51:53.368Z,33.53
2024-01-24T12:54:20.876Z,18.20
2024-01-24T12:56:48.925Z,19.73
2024-01-24T12:59:16.995Z,20.50
2024-01-24T13:01:43.883Z,19.40
2024-01-24T13:04:11.311Z,17.00
2024-01-24T13:06:38.333Z,16.23
2024-01-24T13:09:06.043Z,20.90
2024-01-24T13:11:33.235Z,20.97
2024-01-24T13:14:00.160Z,18.87
2024-01-24T13:16:26.996Z,24.37
2024-01-24T13:18:53.839Z,21.53
2024-01-24T13:21:20.734Z,19.80
2024-01-24T13:23:47.360Z,21.30
2024-01-24T13:26:14.062Z,19.87
2024-01-24T13:28:41.655Z,22.80
2024-01-24T13:31:08.438Z,25.90
2024-01-24T13:33:37.799Z,24.13
2024-01-24T13:36:05.403Z,17.30
2024-01-24T13:38:33.041Z,21.93
2024-01-24T13:40:59.828Z,20.67
2024-01-24T13:43:26.523Z,21.63
2024-01-24T13:45:53.290Z,26.50
2024-01-24T13:48:19.955Z,21.83
2024-01-24T13:50:46.667Z,15.57
2024-01-24T13:53:13.433Z,21.70
2024-01-24T13:55:41.013Z,31.73
2024-01-24T13:58:08.172Z,17.93
2024-01-24T14:00:34.970Z,29.00
2024-01-24T14:03:01.898Z,21.30
2024-01-24T14:05:28.773Z,22.07
2024-01-24T14:07:55.456Z,22.10
2024-01-24T14:10:22.394Z,20.63
2024-01-24T14:12:49.291Z,22.83
2024-01-24T14:15:24.693Z,15.77
2024-01-24T14:18:00.051Z,18.07
2024-01-24T14:20:26.826Z,25.57
2024-01-24T14:22:53.727Z,22.10
2024-01-24T14:25:20.837Z,26.00
2024-01-24T14:27:47.554Z,24.67
2024-01-24T14:30:14.803Z,12.80
2024-01-24T14:32:41.629Z,23.63
2024-01-24T14:35:09.027Z,20.33
2024-01-24T14:37:36.212Z,16.63
2024-01-24T14:40:03.344Z,21.30
2024-01-24T14:42:30.082Z,18.40
2024-01-24T14:44:56.749Z,23.93
2024-01-24T14:47:23.415Z,15.37
2024-01-24T14:49:50.228Z,22.10
2024-01-24T14:52:16.942Z,20.67
2024-01-24T14:54:43.577Z,18.33
2024-01-24T14:57:10.350Z,21.93
2024-01-24T14:59:37.102Z,19.20
2024-01-24T15:02:04.296Z,34.50
2024-01-24T15:04:31.055Z,21.83
2024-01-24T15:06:57.845Z,21.07
2024-01-24T15:09:24.582Z,23.17
2024-01-24T15:11:51.960Z,22.97
2024-01-24T15:14:19.196Z,25.87
2024-01-24T15:16:45.770Z,30.57
2024-01-24T15:19:12.579Z,23.33
2024-01-24T15:21:39.209Z,22.13
2024-01-24T15:24:08.429Z,21.07
2024-01-24T15:26:35.659Z,18.67
2024-01-24T15:29:04.366Z,26.47
2024-01-24T15:31:31.058Z,18.30
2024-01-24T15:33:57.915Z,24.47
2024-01-24T15:36:24.823Z,17.63
2024-01-24T15:38:52.017Z,26.70
2024-01-24T15:41:22.091Z,13.10
2024-01-24T15:43:49.170Z,14.73
2024-01-24T15:46:16.257Z,14.63
2024-01-24T15:48:43.373Z,21.57
2024-01-24T15:51:10.936Z,23.67
2024-01-24T15:53:38.110Z,24.60
2024-01-24T15:56:05.156Z,26.40
2024-01-24T15:58:31.942Z,19.70
2024-01-24T16:00:58.856Z,17.30
2024-01-24T16:03:28.576Z,21.10
2024-01-24T16:05:56.231Z,24.97
2024-01-24T16:08:24.143Z,21.70
2024-01-24T16:10:51.206Z,30.13
2024-01-24T16:13:18.057Z,18.83
2024-01-24T16:15:44.840Z,19.20
2024-01-24T16:18:11.764Z,25.47
2024-01-24T16:20:39.639Z,30.10
2024-01-24T16:23:06.758Z,25.70
2024-01-24T16:25:33.679Z,17.37
2024-01-24T16:28:00.406Z,23.90
2024-01-24T16:30:28.618Z,19.30
2024-01-24T16:32:56.721Z,28.70
2024-01-24T16:35:23.754Z,30.07
2024-01-24T16:37:50.679Z,22.57
2024-01-24T16:40:17.442Z,20.30
2024-01-24T16:42:44.199Z,31.53
2024-01-24T16:45:12.223Z,24.93
2024-01-24T16:47:39.982Z,18.97
2024-01-24T16:50:07.560Z,22.37
2024-01-24T16:52:34.576Z,24.17
2024-01-24T16:55:01.706Z,24.27
2024-01-24T16:57:28.718Z,22.80
2024-01-24T16:59:58.099Z,19.70
2024-01-24T17:02:34.153Z,23.27
2024-01-24T17:05:05.533Z,20.80
2024-01-24T17:07:32.333Z,23.03
2024-01-24T17:10:01.207Z,21.53
2024-01-24T17:12:28.857Z,18.30
2024-01-24T17:14:55.790Z,22.20
2024-01-24T17:17:22.620Z,23.33
2024-01-24T17:19:49.401Z,18.73
2024-01-24T17:22:16.645Z,19.80
2024-01-24T17:24:43.334Z,19.70
2024-01-24T17:27:10.359Z,18.30
2024-01-24T17:29:39.418Z,28.80
2024-01-24T17:32:06.408Z,19.50
2024-01-24T17:34:33.999Z,24.47
2024-01-24T17:37:00.942Z,20.77
2024-01-24T17:39:27.595Z,21.30
2024-01-24T17:41:54.499Z,25.83
2024-01-24T17:44:21.312Z,21.57
2024-01-24T17:46:47.915Z,22.33
2024-01-24T17:49:16.464Z,22.43
2024-01-24T17:51:43.584Z,19.30
2024-01-24T17:54:10.555Z,19.90
2024-01-24T17:56:37.231Z,22.00
2024-01-24T17:59:04.204Z,22.30
2024-01-24T18:01:32.474Z,26.57
2024-01-24T18:03:59.378Z,29.97
2024-01-24T18:06:26.790Z,31.80
2024-01-24T18:08:53.424Z,22.30
2024-01-24T18:11:20.139Z,25.47
2024-01-24T18:13:47.327Z,32.80
2024-01-24T18:16:14.000Z,24.70
2024-01-24T18:18:40.750Z,26.37
2024-01-24T18:21:09.260Z,26.07
2024-01-24T18:23:36.993Z,20.97
2024-01-24T18:26:03.670Z,29.93
2024-01-24T18:28:30.283Z,27.70
2024-01-24T18:30:57.409Z,21.03
2024-01-24T18:33:24.197Z,30.03
2024-01-24T18:35:50.913Z,21.70
2024-01-24T18:38:18.208Z,24.73
2024-01-24T18:40:44.885Z,28.40
2024-01-24T18:43:11.724Z,22.87
2024-01-24T18:45:38.597Z,21.47
2024-01-24T18:48:06.831Z,22.07
2024-01-24T18:50:33.620Z,23.30
2024-01-24T18:53:00.221Z,23.37
2024-01-24T18:55:26.955Z,26.30
2024-01-24T18:57:53.820Z,30.40
2024-01-24T19:00:22.349Z,25.20
2024-01-24T19:02:49.713Z,21.87
2024-01-24T19:05:23.661Z,22.90
2024-01-24T19:07:57.189Z,31.37
2024-01-24T19:10:24.418Z,32.87
2024-01-24T19:12:51.123Z,28.13
2024-01-24T19:15:18.789Z,22.97
2024-01-24T19:17:45.443Z,18.33
2024-01-24T19:20:14.733Z,25.07
2024-01-24T19:22:41.460Z,22.53
2024-01-24T19:25:09.461Z,23.90
2024-01-24T19:27:36.148Z,27.87
2024-01-24T19:30:02.922Z,40.73
2024-01-24T19:32:29.565Z,22.97
2024-01-24T19:34:56.983Z,16.67
2024-01-24T19:37:23.747Z,21.27
2024-01-24T19:39:50.553Z,28.93
2024-01-24T19:42:17.779Z,25.13
2024-01-24T19:44:44.523Z,18.43
2024-01-24T19:47:11.368Z,25.53
2024-01-24T19:49:38.317Z,23.47
2024-01-24T19:52:05.426Z,25.00
2024-01-24T19:54:32.140Z,23.77
2024-01-24T19:56:58.790Z,28.07
2024-01-24T19:59:25.681Z,30.87
2024-01-24T20:01:52.935Z,23.90
2024-01-24T20:04:20.367Z,26.50
2024-01-24T20:06:47.098Z,23.83
2024-01-24T20:09:16.695Z,25.87
2024-01-24T20:11:43.432Z,27.00
2024-01-24T20:14:10.106Z,22.30
2024-01-24T20:16:36.851Z,21.53
2024-01-24T20:19:03.728Z,26.03
2024-01-24T20:21:30.829Z,21.27
2024-01-24T20:23:58.136Z,27.70
2024-01-24T20:26:25.732Z,29.67
2024-01-24T20:28:52.848Z,29.67
2024-01-24T20:31:19.568Z,22.13
2024-01-24T20:33:46.396Z,21.20
2024-01-24T20:36:13.621Z,23.20
2024-01-24T20:38:43.261Z,23.50
2024-01-24T20:41:10.988Z,29.43
2024-01-24T20:43:41.099Z,40.33
2024-01-24T20:46:09.681Z,25.30
2024-01-24T20:48:37.768Z,24.20
2024-01-24T20:51:05.052Z,22.43
2024-01-24T20:53:31.730Z,33.57
2024-01-24T20:55:58.983Z,34.07
2024-01-24T20:58:25.993Z,29.03
2024-01-24T21:00:52.753Z,21.57
2024-01-24T21:03:20.464Z,30.27
2024-01-24T21:05:48.490Z,32.57
2024-01-24T21:08:15.263Z,40.97
2024-01-24T21:10:48.582Z,28.60
2024-01-24T21:13:22.113Z,22.53
2024-01-24T21:15:49.083Z,34.30
2024-01-24T21:18:17.375Z,40.13
2024-01-24T21:20:44.104Z,33.80
2024-01-24T21:23:11.213Z,41.13
2024-01-24T21:25:37.992Z,23.63
2024-01-24T21:28:05.059Z,37.70
2024-01-24T21:30:31.702Z,29.00
2024-01-24T21:32:58.995Z,28.13
2024-01-24T21:35:25.790Z,31.97
2024-01-24T21:37:52.418Z,35.97
2024-01-24T21:40:19.145Z,33.10
2024-01-24T21:42:45.963Z,32.23
2024-01-24T21:45:12.712Z,29.10
2024-01-24T21:47:40.734Z,34.77
2024-01-24T21:50:09.054Z,28.50
2024-01-24T21:52:36.618Z,39.70
2024-01-24T21:55:04.900Z,33.30
2024-01-24T21:57:31.647Z,28.47
2024-01-24T21:59:58.624Z,30.57
2024-01-24T22:02:25.514Z,27.37
2024-01-24T22:04:52.271Z,28.80
2024-01-24T22:07:19.131Z,26.13
2024-01-24T22:09:49.353Z,32.63
2024-01-24T22:12:17.300Z,35.53
2024-01-24T22:14:43.911Z,30.07
2024-01-24T22:17:11.124Z,34.50
2024-01-24T22:19:38.017Z,37.77
2024-01-24T22:22:04.684Z,33.50
2024-01-24T22:24:31.382Z,35.97
2024-01-24T22:26:58.058Z,39.60
2024-01-24T22:29:24.646Z,34.20
2024-01-24T22:31:51.225Z,21.37
2024-01-24T22:34:17.978Z,34.17
2024-01-24T22:36:45.171Z,30.10
2024-01-24T22:39:11.920Z,41.57
2024-01-24T22:41:44.774Z,35.53
2024-01-24T22:44:11.572Z,33.27
2024-01-24T22:46:41.647Z,36.33
2024-01-24T22:49:09.403Z,36.57
2024-01-24T22:51:36.461Z,34.10
2024-01-24T22:54:03.636Z,30.57
2024-01-24T22:56:30.661Z,36.20
2024-01-24T22:58:57.542Z,29.00
2024-01-24T23:01:24.616Z,38.23
2024-01-24T23:03:51.680Z,32.63
2024-01-24T23:06:18.961Z,29.20
2024-01-24T23:08:45.813Z,29.70
2024-01-24T23:11:12.973Z,35.93
2024-01-24T23:13:40.565Z,34.10
2024-01-24T23:16:07.471Z,35.27
2024-01-24T23:18:34.422Z,33.63
2024-01-24T23:21:01.157Z,33.07
2024-01-24T23:23:27.756Z,33.30
2024-01-24T23:25:54.364Z,33.73
2024-01-24T23:28:21.252Z,35.57
2024-01-24T23:30:48.020Z,44.73
2024-01-24T23:33:14.875Z,36.00
2024-01-24T23:35:41.695Z,30.90
2024-01-24T23:38:08.374Z,37.20
2024-01-24T23:40:34.994Z,35.17
2024-01-24T23:43:01.863Z,29.27
2024-01-24T23:45:29.248Z,44.47
2024-01-24T23:47:56.014Z,29.23
2024-01-24T23:50:23.174Z,34.67
2024-01-24T23:52:50.066Z,37.10
2024-01-24T23:55:16.986Z,30.13
2024-01-24T23:57:43.745Z,28.73
